M I D A S
Marine Information and Data Acquisition System
Tripno 1075 of the Zeeleeuw from 2006-04-25 06:35:23 to 2006-04-25 15:41:12
Back to CruiseResearch ActivitiesStationsMapUnderway DataData graphs

EquipmentUnitsComment
TimeDGPSUTC
LatitudeDGPSDM.mWGS84
LongitudeDGPSDM.mWGS84
HeadingGyrodeg 
SOGDGPSknotsSpeed over ground
COGDGPSdegCourse over ground
DepthEcho soundermeters200 kHz
Missing or incorrect values are displayed as -999
Navigation data collected by the RV Zeeleeuw from 2006-04-25 06:35:04 to 2006-04-25 15:53:21
Time Latitude Longitude Heading SOG COG Depth
2006-04-25 06:36:11 51°13.614 2°56.043 112.1 3.6 291 -999
2006-04-25 06:37:11 51°13.639 2°55.933 117.9 4.7 293 -999
2006-04-25 06:38:11 51°13.681 2°55.82 125.6 4.6 303 -999
2006-04-25 06:39:10 51°13.707 2°55.743 108.5 2.1 290 4.7
2006-04-25 06:40:10 51°13.719 2°55.76 48.6 0.8 43 9.8
2006-04-25 06:41:11 51°13.699 2°55.745 30.1 2 207 -999
2006-04-25 06:42:11 51°13.714 2°55.733 343.3 3 337 -999
2006-04-25 06:43:10 51°13.785 2°55.674 335.5 5.7 332 9.4
2006-04-25 06:44:11 51°13.882 2°55.599 339.8 6.7 335 -999
2006-04-25 06:45:11 51°13.987 2°55.523 340.9 7.1 338 -999
2006-04-25 06:46:10 51°14.098 2°55.446 341.5 7.5 336 9.5
2006-04-25 06:47:11 51°14.208 2°55.347 327.9 7.5 323 -999
2006-04-25 06:48:11 51°14.301 2°55.197 315.8 8.5 312 -999
2006-04-25 06:49:10 51°14.398 2°55.023 317.5 9.2 312 9.4
2006-04-25 06:50:10 51°14.486 2°54.802 298.5 10.4 290 9.4
2006-04-25 06:51:10 51°14.476 2°54.506 255 12.5 246 9.6
2006-04-25 06:52:10 51°14.365 2°54.203 243.4 13.5 239 8.6
2006-04-25 06:53:10 51°14.255 2°53.891 244.6 13.6 240 8.5
2006-04-25 06:54:10 51°14.141 2°53.577 245.9 13.7 241 8.7
2006-04-25 06:55:10 51°14.019 2°53.269 239 13.7 234 8.9
2006-04-25 06:56:10 51°13.908 2°52.953 251.8 13.8 247 9.2
2006-04-25 06:57:10 51°13.81 2°52.624 249 13.8 245 9.5
2006-04-25 06:58:10 51°13.697 2°52.308 243.1 13.7 238 9.7
2006-04-25 06:59:10 51°13.591 2°51.99 247.4 13.5 242 9.8
2006-04-25 07:00:10 51°13.486 2°51.672 247.4 13.6 243 9.9
2006-04-25 07:01:10 51°13.371 2°51.364 242 13.5 238 10
2006-04-25 07:02:10 51°13.263 2°51.051 246.4 13.5 242 10.3
2006-04-25 07:03:10 51°13.152 2°50.741 242 13.5 237 10.4
2006-04-25 07:04:10 51°13.038 2°50.433 245.6 13.5 241 10.5
2006-04-25 07:05:10 51°12.929 2°50.12 244.5 13.5 240 10.7
2006-04-25 07:06:10 51°12.821 2°49.805 245.3 13.5 241 10.9
2006-04-25 07:07:10 51°12.713 2°49.492 245.5 13.5 242 11
2006-04-25 07:08:10 51°12.606 2°49.179 244.9 13.4 241 11.2
2006-04-25 07:09:10 51°12.497 2°48.868 245.3 13.4 241 11.3
2006-04-25 07:10:10 51°12.389 2°48.558 244.5 13.3 241 11.4
2006-04-25 07:11:10 51°12.281 2°48.249 244.6 13.3 241 11.5
2006-04-25 07:12:10 51°12.182 2°47.933 251 13.4 247 11.7
2006-04-25 07:13:10 51°12.092 2°47.61 251.9 13.3 248 11.8
2006-04-25 07:14:10 51°12.007 2°47.284 251.6 13.3 248 12
2006-04-25 07:15:10 51°11.92 2°46.96 249.8 13.3 247 12.2
2006-04-25 07:16:10 51°11.848 2°46.625 257.3 13.4 253 12.3
2006-04-25 07:17:10 51°11.774 2°46.288 254.6 13.5 251 12.4
2006-04-25 07:18:10 51°11.702 2°45.95 253.9 13.5 250 12.5
2006-04-25 07:19:10 51°11.634 2°45.615 258.5 13.3 254 12.5
2006-04-25 07:20:10 51°11.568 2°45.28 256.6 13.2 252 12.5
2006-04-25 07:21:10 51°11.505 2°44.945 258.2 13.2 254 12.5
2006-04-25 07:22:10 51°11.442 2°44.607 256.7 13.3 253 12.4
2006-04-25 07:23:10 51°11.381 2°44.269 257.8 13.3 254 12.4
2006-04-25 07:24:10 51°11.317 2°43.931 257.5 13.3 254 12.6
2006-04-25 07:25:10 51°11.253 2°43.595 257.6 13.3 254 12.4
2006-04-25 07:26:10 51°11.19 2°43.258 255.3 13.2 251 12.5
2006-04-25 07:27:10 51°11.14 2°42.917 262 13.2 259 12.6
2006-04-25 07:28:10 51°11.116 2°42.57 270.8 13.2 268 12.5
2006-04-25 07:29:10 51°11.116 2°42.29 273.3 8.3 269 12.5
2006-04-25 07:30:10 51°11.109 2°42.122 270.1 5.2 267 12.5
2006-04-25 07:31:10 51°11.109 2°42.068 285.3 0.2 84 12.5
2006-04-25 07:32:11 51°11.11 2°42.073 308.4 0.2 98 12.5
2006-04-25 07:33:10 51°11.11 2°42.079 322.4 0.3 80 12.4
2006-04-25 07:34:10 51°11.111 2°42.088 338.6 0.3 81 12.5
2006-04-25 07:35:10 51°11.112 2°42.097 351 0.4 84 12.5
2006-04-25 07:36:10 51°11.112 2°42.107 358.7 0.4 86 12.6
2006-04-25 07:37:10 51°11.112 2°42.117 2 0.5 77 12.6
2006-04-25 07:38:10 51°11.115 2°42.129 0.4 0.5 75 12.6
2006-04-25 07:39:10 51°11.117 2°42.141 359.5 0.5 68 12.7
2006-04-25 07:40:10 51°11.12 2°42.153 356.8 0.6 71 12.7
2006-04-25 07:41:10 51°11.123 2°42.167 355.3 0.6 73 12.6
2006-04-25 07:42:11 51°11.125 2°42.183 357.3 0.6 76 12.7
2006-04-25 07:43:10 51°11.128 2°42.2 357.7 0.7 76 12.8
2006-04-25 07:44:10 51°11.131 2°42.218 358.6 0.7 76 12.8
2006-04-25 07:45:10 51°11.134 2°42.237 359.1 0.8 73 12.8
2006-04-25 07:46:11 51°11.138 2°42.258 0.3 0.8 78 12.9
2006-04-25 07:47:10 51°11.141 2°42.278 359.2 0.8 73 12.9
2006-04-25 07:48:10 51°11.156 2°42.293 342.8 1.7 2 12.9
2006-04-25 07:49:11 51°11.185 2°42.265 299.4 2.2 305 12.8
2006-04-25 07:50:10 51°11.183 2°42.211 244.9 2.2 237 12.7
2006-04-25 07:51:11 51°11.141 2°42.182 207.7 3.3 197 12.9
2006-04-25 07:52:10 51°11.099 2°42.13 241.6 3.3 237 13
2006-04-25 07:53:10 51°11.09 2°42.066 280 1 281 13
2006-04-25 07:54:10 51°11.095 2°42.075 322.5 0.8 60 13.1
2006-04-25 07:55:11 51°11.101 2°42.098 354.5 1 70 13.1
2006-04-25 07:56:10 51°11.107 2°42.123 7.1 1.1 71 13.1
2006-04-25 07:57:11 51°11.113 2°42.151 8.8 1.1 72 13.1
2006-04-25 07:58:10 51°11.118 2°42.179 6.4 1.2 73 13.2
2006-04-25 07:59:10 51°11.123 2°42.21 3 1.2 76 13.3
2006-04-25 08:00:11 51°11.128 2°42.241 0.5 1.3 74 13.2
2006-04-25 08:01:10 51°11.134 2°42.273 0.4 1.3 72 13.3
2006-04-25 08:02:10 51°11.14 2°42.307 359.5 1.4 73 13.4
2006-04-25 08:03:11 51°11.148 2°42.342 358.5 1.3 71 13.3
2006-04-25 08:04:11 51°11.156 2°42.375 358 1.4 68 13.4
2006-04-25 08:05:10 51°11.166 2°42.409 358.8 1.5 67 13.4
2006-04-25 08:06:10 51°11.175 2°42.444 359.9 1.5 64 13.4
2006-04-25 08:07:10 51°11.186 2°42.48 355.2 1.5 62 13.5
2006-04-25 08:08:10 51°11.198 2°42.515 350.5 1.5 63 13.4
2006-04-25 08:09:10 51°11.213 2°42.548 341 1.6 40 13.5
2006-04-25 08:10:10 51°11.235 2°42.565 317.1 1.4 14 13.4
2006-04-25 08:11:10 51°11.256 2°42.57 300.1 1.3 2 13.3
2006-04-25 08:12:10 51°11.273 2°42.568 283 0.8 347 13.3
2006-04-25 08:13:11 51°11.28 2°42.564 263.5 0.3 31 13.3
2006-04-25 08:14:11 51°11.282 2°42.578 252.3 0.8 80 13.3
2006-04-25 08:15:10 51°11.284 2°42.608 234.4 1.4 87 13.3
2006-04-25 08:16:10 51°11.28 2°42.642 213.4 1.4 100 13.4
2006-04-25 08:17:10 51°11.279 2°42.684 194.7 1.7 90 13.6
2006-04-25 08:18:10 51°11.277 2°42.732 179.2 2.3 126 13.6
2006-04-25 08:19:10 51°11.218 2°42.727 221.3 4.1 209 13.9
2006-04-25 08:20:10 51°11.168 2°42.557 251.7 9.6 248 13.8
2006-04-25 08:21:10 51°11.088 2°42.292 246.6 11.5 242 13.9
2006-04-25 08:22:10 51°11.006 2°42.014 249.7 11.6 244 13.9
2006-04-25 08:23:10 51°10.921 2°41.743 249.4 11.5 245 14.1
2006-04-25 08:24:10 51°10.835 2°41.469 248.8 11.5 245 14
2006-04-25 08:25:11 51°10.751 2°41.19 250.1 11.5 246 14.2
2006-04-25 08:26:10 51°10.675 2°40.916 250.2 11.4 246 14.2
2006-04-25 08:27:11 51°10.596 2°40.637 251.1 11.3 247 14.5
2006-04-25 08:28:11 51°10.522 2°40.362 251.8 11.3 247 14.9
2006-04-25 08:29:11 51°10.445 2°40.087 251.1 11.3 246 15.2
2006-04-25 08:30:11 51°10.378 2°39.809 253.4 11.3 249 15.4
2006-04-25 08:31:11 51°10.317 2°39.527 255.5 11.3 251 16
2006-04-25 08:32:10 51°10.257 2°39.249 255.3 11.3 251 16.6
2006-04-25 08:33:11 51°10.184 2°38.969 251.8 11.3 247 16.7
2006-04-25 08:34:11 51°10.124 2°38.685 257.1 11.2 252 17
2006-04-25 08:35:10 51°10.067 2°38.408 257.1 11.3 254 17.7
2006-04-25 08:36:11 51°10.017 2°38.114 257.5 11.3 253 18.2
2006-04-25 08:37:11 51°9.967 2°37.827 259.1 11.2 255 18.4
2006-04-25 08:38:11 51°9.919 2°37.542 259.9 11.1 256 18.5
2006-04-25 08:39:11 51°9.882 2°37.254 262.2 11.1 259 18.7
2006-04-25 08:40:10 51°9.859 2°36.969 267.1 11 263 18.8
2006-04-25 08:41:11 51°9.842 2°36.673 269 11.1 267 19.4
2006-04-25 08:42:10 51°9.837 2°36.384 269.7 11.1 268 19.6
2006-04-25 08:43:10 51°9.895 2°36.108 300 11.5 304 19.8
2006-04-25 08:44:10 51°10.049 2°35.906 327.9 12.4 332 18.7
2006-04-25 08:45:10 51°10.258 2°35.861 7.9 13.4 12 12.5
2006-04-25 08:46:11 51°10.465 2°36.032 34.2 14 32 12.8
2006-04-25 08:47:10 51°10.667 2°36.209 29.2 14 27 13
2006-04-25 08:48:11 51°10.88 2°36.376 26.5 14 26 13.9
2006-04-25 08:49:10 51°11.079 2°36.562 33.3 14.3 31 14.3
2006-04-25 08:50:11 51°11.29 2°36.74 29.6 14 28 14.6
2006-04-25 08:51:10 51°11.487 2°36.928 33.4 14 31 14.9
2006-04-25 08:52:11 51°11.695 2°37.109 29 14 29 14.8
2006-04-25 08:53:11 51°11.896 2°37.295 33.8 13.9 33 14.6
2006-04-25 08:54:11 51°12.096 2°37.484 32 13.8 30 14.5
2006-04-25 08:55:11 51°12.292 2°37.678 33.5 13.9 31 14.6
2006-04-25 08:56:11 51°12.491 2°37.868 33.3 14 31 14.9
2006-04-25 08:57:10 51°12.69 2°38.048 31 14 30 15.2
2006-04-25 08:58:10 51°12.892 2°38.233 31.3 14.1 30 15.5
2006-04-25 08:59:10 51°13.093 2°38.426 33.5 14.2 32 16
2006-04-25 09:00:11 51°13.291 2°38.63 33.7 13.9 34 16.4
2006-04-25 09:01:10 51°13.484 2°38.82 32.5 13.8 32 16.1
2006-04-25 09:02:11 51°13.685 2°38.998 25.3 13.7 26 16.4
2006-04-25 09:03:10 51°13.885 2°39.155 26.9 13.6 27 16.3
2006-04-25 09:04:11 51°14.098 2°39.193 351.2 12.5 350 15.3
2006-04-25 09:05:10 51°14.287 2°39.082 329.6 12.2 331 14.2
2006-04-25 09:06:10 51°14.451 2°38.895 316.9 12.1 321 19.6
2006-04-25 09:07:10 51°14.609 2°38.693 318.7 12.2 323 18.9
2006-04-25 09:08:10 51°14.768 2°38.489 318.5 12.4 322 18.8
2006-04-25 09:09:11 51°14.935 2°38.288 319.4 12.3 322 18.1
2006-04-25 09:10:10 51°15.093 2°38.093 319.5 12.1 323 15.1
2006-04-25 09:11:11 51°15.254 2°37.898 319.3 11.9 323 12.9
2006-04-25 09:12:10 51°15.415 2°37.724 323.5 11.9 328 12.4
2006-04-25 09:13:10 51°15.591 2°37.572 328.2 12.1 333 13.5
2006-04-25 09:14:10 51°15.77 2°37.422 328 12.2 332 13.2
2006-04-25 09:15:10 51°15.951 2°37.269 330.2 12.5 334 14.2
2006-04-25 09:16:11 51°16.142 2°37.118 331 12.8 334 22.7
2006-04-25 09:17:10 51°16.33 2°36.972 330.9 12.9 334 28.1
2006-04-25 09:18:11 51°16.501 2°36.857 339.3 9 353 28.7
2006-04-25 09:19:10 51°16.592 2°36.828 310.5 3.5 339 28.6
2006-04-25 09:20:11 51°16.625 2°36.849 312.8 2.2 39 28.5
2006-04-25 09:21:10 51°16.659 2°36.846 279.2 1.8 331 28.8
2006-04-25 09:22:10 51°16.669 2°36.836 238.7 0.5 44 28.8
2006-04-25 09:23:10 51°16.676 2°36.863 216.8 1.7 72 28.5
2006-04-25 09:24:10 51°16.691 2°36.917 183.5 2.5 64 28.3
2006-04-25 09:25:11 51°16.711 2°36.974 159 2.5 59 28.3
2006-04-25 09:26:11 51°16.732 2°37.029 147.9 2.5 57 28.5
2006-04-25 09:27:11 51°16.753 2°37.085 144 2.6 58 28.4
2006-04-25 09:28:11 51°16.776 2°37.14 142 2.4 57 28.8
2006-04-25 09:29:11 51°16.797 2°37.195 143.9 2.4 57 29
2006-04-25 09:30:11 51°16.819 2°37.249 147.5 2.4 57 29.3
2006-04-25 09:31:11 51°16.84 2°37.304 152.5 2.5 59 30.1
2006-04-25 09:32:10 51°16.845 2°37.364 167.7 2.8 123 30
2006-04-25 09:33:10 51°16.813 2°37.345 250.2 3.8 260 29.1
2006-04-25 09:34:11 51°16.89 2°37.13 297.9 11.5 301 30.1
2006-04-25 09:35:11 51°16.99 2°36.859 301.4 12.2 306 29.7
2006-04-25 09:36:11 51°17.12 2°36.602 304.8 12.4 309 28.8
2006-04-25 09:37:10 51°17.242 2°36.345 299.8 12.1 301 26
2006-04-25 09:38:11 51°17.352 2°36.074 303.3 12 304 21.1
2006-04-25 09:39:11 51°17.463 2°35.813 302 11.8 304 15.2
2006-04-25 09:40:11 51°17.572 2°35.558 303.4 11.5 306 13
2006-04-25 09:41:10 51°17.682 2°35.314 304.8 11.6 307 15.7
2006-04-25 09:42:10 51°17.794 2°35.068 303 11.6 305 18.3
2006-04-25 09:43:11 51°17.913 2°34.813 304.1 11.7 308 21.9
2006-04-25 09:44:10 51°18.034 2°34.57 303.1 11.9 308 29.6
2006-04-25 09:45:11 51°18.159 2°34.318 302.6 11.9 308 29.5
2006-04-25 09:46:10 51°18.279 2°34.076 300.9 11.7 307 27.4
2006-04-25 09:47:11 51°18.389 2°33.815 300 11.7 304 23.4
2006-04-25 09:48:11 51°18.495 2°33.558 297.4 11.6 301 17.9
2006-04-25 09:49:10 51°18.596 2°33.299 297.8 11.8 302 24.1
2006-04-25 09:50:11 51°18.704 2°33.031 298.9 11.8 301 28.5
2006-04-25 09:51:10 51°18.808 2°32.771 298.3 11.8 304 30.4
2006-04-25 09:52:11 51°18.916 2°32.504 298.3 11.9 302 31.8
2006-04-25 09:53:11 51°19.023 2°32.24 298.2 11.8 302 32.4
2006-04-25 09:54:11 51°19.132 2°31.974 298.6 12 303 32.7
2006-04-25 09:55:10 51°19.242 2°31.707 297.9 12.3 303 32.4
2006-04-25 09:56:11 51°19.35 2°31.429 297.9 11.9 302 32.2
2006-04-25 09:57:11 51°19.455 2°31.161 298.8 11.9 302 31.6
2006-04-25 09:58:11 51°19.556 2°30.888 298.7 12 301 27.3
2006-04-25 09:59:11 51°19.661 2°30.621 300.7 11.9 303 21.3
2006-04-25 10:00:11 51°19.784 2°30.377 307.3 11.8 313 17.7
2006-04-25 10:01:11 51°19.902 2°30.185 306.8 8 316 14.9
2006-04-25 10:02:10 51°19.964 2°30.094 302.4 3.9 327 15.2
2006-04-25 10:03:11 51°19.997 2°30.091 286.3 1.7 29 15.2
2006-04-25 10:04:10 51°20.019 2°30.123 289.7 2 49 16.2
2006-04-25 10:05:11 51°20.04 2°30.176 293.7 2.8 61 15
2006-04-25 10:06:11 51°20.061 2°30.245 313.9 2.8 67 15.2
2006-04-25 10:07:11 51°20.079 2°30.313 324.1 2.6 67 16.5
2006-04-25 10:08:11 51°20.097 2°30.383 326 2.9 71 14
2006-04-25 10:09:11 51°20.112 2°30.455 330.9 2.9 71 16.3
2006-04-25 10:10:11 51°20.164 2°30.512 4.9 5.9 25 14.2
2006-04-25 10:11:11 51°20.277 2°30.697 46.2 12.2 46 15.5
2006-04-25 10:12:11 51°20.448 2°30.949 42.7 14.4 43 15.5
2006-04-25 10:13:11 51°20.626 2°31.209 42.2 14.8 45 15.8
2006-04-25 10:14:11 51°20.808 2°31.47 42.3 14.5 42 16.1
2006-04-25 10:15:11 51°20.991 2°31.727 43 14.7 41 15.7
2006-04-25 10:16:11 51°21.171 2°31.981 43.6 14.6 41 17.8
2006-04-25 10:17:11 51°21.348 2°32.232 44.5 13.9 44 19.9
2006-04-25 10:18:11 51°21.503 2°32.517 54.2 13.9 52 22
2006-04-25 10:19:11 51°21.604 2°32.85 80.2 14.2 79 23.4
2006-04-25 10:20:11 51°21.682 2°33.202 69.7 14 65 25.8
2006-04-25 10:21:11 51°21.78 2°33.547 70.2 14.1 67 27.3
2006-04-25 10:22:11 51°21.844 2°33.905 82.6 14.2 77 29.2
2006-04-25 10:23:11 51°21.897 2°34.274 81.8 14.3 78 30.5
2006-04-25 10:24:11 51°21.954 2°34.641 80.1 14.2 74 31.9
2006-04-25 10:25:11 51°22.018 2°35.016 81.8 14.4 76 30.2
2006-04-25 10:26:11 51°22.082 2°35.387 83.6 14.7 77 31.1
2006-04-25 10:27:11 51°22.117 2°35.777 93 14.6 85 32.1
2006-04-25 10:28:11 51°22.136 2°36.166 91.4 14.4 87 32.1
2006-04-25 10:29:11 51°22.161 2°36.556 92.8 15 85 33.3
2006-04-25 10:30:10 51°22.18 2°36.945 94.6 15 89 32.5
2006-04-25 10:31:11 51°22.187 2°37.343 94.2 14.8 86 32.9
2006-04-25 10:32:10 51°22.217 2°37.728 86.6 14.8 82 32.1
2006-04-25 10:33:11 51°22.26 2°38.124 88.2 14.8 83 31.6
2006-04-25 10:34:11 51°22.295 2°38.511 86 14.7 81 33
2006-04-25 10:35:11 51°22.331 2°38.9 86.7 15.1 81 31.2
2006-04-25 10:36:11 51°22.38 2°39.288 83.6 15.1 76 31.9
2006-04-25 10:37:11 51°22.461 2°39.674 75.2 15.2 70 29.9
2006-04-25 10:38:11 51°22.552 2°40.048 70.9 15.2 67 31.1
2006-04-25 10:39:11 51°22.661 2°40.41 65.1 14.7 63 31.8
2006-04-25 10:40:11 51°22.767 2°40.764 66 14.9 63 31.1
2006-04-25 10:41:11 51°22.873 2°41.118 69.3 14.8 64 32.1
2006-04-25 10:42:11 51°23.023 2°41.43 47.3 14.7 48 30.8
2006-04-25 10:43:11 51°23.199 2°41.708 46.3 14.9 42 29.8
2006-04-25 10:44:11 51°23.376 2°41.988 43.7 15 43 30.3
2006-04-25 10:45:11 51°23.539 2°42.279 56 15 53 28.6
2006-04-25 10:46:11 51°23.694 2°42.598 56.3 15.2 53 28.5
2006-04-25 10:47:11 51°23.841 2°42.912 57.3 14.6 55 28.1
2006-04-25 10:48:11 51°23.991 2°43.22 53.2 15 52 28.4
2006-04-25 10:49:11 51°24.139 2°43.541 57.9 15.1 54 25.1
2006-04-25 10:50:11 51°24.288 2°43.853 54.7 14.8 54 28.1
2006-04-25 10:51:11 51°24.432 2°44.168 55.8 14.8 53 26.8
2006-04-25 10:52:11 51°24.578 2°44.488 61.2 14.9 58 28.5
2006-04-25 10:53:11 51°24.695 2°44.838 66.2 14.9 61 29.3
2006-04-25 10:54:11 51°24.811 2°45.189 66.7 14.9 64 26.3
2006-04-25 10:55:11 51°24.925 2°45.536 65.2 14.7 61 27.6
2006-04-25 10:56:11 51°25.036 2°45.889 68.5 14.8 63 26.1
2006-04-25 10:57:11 51°25.155 2°46.226 63.1 14.5 60 27.6
2006-04-25 10:58:11 51°25.276 2°46.555 65.4 14.3 59 27.4
2006-04-25 10:59:11 51°25.39 2°46.888 65.8 14.5 60 27.4
2006-04-25 11:00:11 51°25.51 2°47.22 62.2 14.3 58 27.5
2006-04-25 11:01:11 51°25.627 2°47.554 65.1 14.9 60 27.4
2006-04-25 11:02:11 51°25.75 2°47.893 63.1 14.6 59 25.7
2006-04-25 11:03:11 51°25.865 2°48.21 64.5 11.6 56 25.5
2006-04-25 11:04:11 51°25.947 2°48.417 62.5 8.1 58 25.5
2006-04-25 11:05:11 51°25.998 2°48.536 38.8 2.9 55 25.6
2006-04-25 11:06:11 51°26.004 2°48.582 34.8 1.9 68 26
2006-04-25 11:07:11 51°26.023 2°48.635 25.4 2.6 58 26
2006-04-25 11:08:11 51°26.049 2°48.696 17.4 2.9 57 4.6
2006-04-25 11:09:11 51°26.08 2°48.756 0.9 2.9 47 25.7
2006-04-25 11:10:11 51°26.112 2°48.81 343.7 2.9 49 25.7
2006-04-25 11:11:11 51°26.142 2°48.864 334.5 2.8 48 25.7
2006-04-25 11:12:11 51°26.174 2°48.919 329.1 2.8 49 25.1
2006-04-25 11:13:11 51°26.204 2°48.973 322.9 2.7 49 25.8
2006-04-25 11:14:11 51°26.235 2°49.03 323.6 3 50 25.7
2006-04-25 11:15:11 51°26.294 2°49.06 341.7 5.7 2 25.5
2006-04-25 11:16:11 51°26.424 2°49.166 46 11.5 48 24.8
2006-04-25 11:17:11 51°26.524 2°49.489 69.7 14.7 65 22.3
2006-04-25 11:18:11 51°26.611 2°49.858 76.9 14.8 71 20.9
2006-04-25 11:19:11 51°26.686 2°50.243 82.4 15.4 73 23.9
2006-04-25 11:20:11 51°26.751 2°50.633 82.3 15.2 74 23.7
2006-04-25 11:21:11 51°26.814 2°51.022 82.9 15 75 24.3
2006-04-25 11:22:11 51°26.883 2°51.405 82.4 14.9 73 25.9
2006-04-25 11:23:11 51°26.96 2°51.781 80.4 14.9 72 25.8
2006-04-25 11:24:11 51°27.03 2°52.161 81.5 14.9 72 21.9
2006-04-25 11:25:11 51°27.097 2°52.541 82.2 15 76 23.6
2006-04-25 11:26:11 51°27.152 2°52.926 84.9 14.9 79 27.3
2006-04-25 11:27:11 51°27.201 2°53.31 85.5 14.7 77 29.2
2006-04-25 11:28:11 51°27.252 2°53.695 85.8 14.9 78 26.8
2006-04-25 11:29:11 51°27.297 2°54.08 87 14.6 79 26.7
2006-04-25 11:30:11 51°27.34 2°54.471 88.4 14.8 81 30.5
2006-04-25 11:31:11 51°27.378 2°54.859 85.6 15.1 79 31.1
2006-04-25 11:32:11 51°27.43 2°55.246 87 15 78 30.7
2006-04-25 11:33:11 51°27.484 2°55.629 86.5 14.4 81 30.2
2006-04-25 11:34:11 51°27.537 2°56.011 87 14.7 77 31.1
2006-04-25 11:35:11 51°27.586 2°56.399 87.3 15 77 29.8
2006-04-25 11:36:11 51°27.628 2°56.789 87.9 14.8 78 27.9
2006-04-25 11:37:11 51°27.673 2°57.175 89.1 14.7 78 29.7
2006-04-25 11:38:11 51°27.72 2°57.564 88.7 14.8 82 29.5
2006-04-25 11:39:11 51°27.763 2°57.95 87.6 14.7 77 28.1
2006-04-25 11:40:11 51°27.81 2°58.333 86.9 14.8 79 26.7
2006-04-25 11:41:11 51°27.85 2°58.716 89.2 14.4 80 23.3
2006-04-25 11:42:11 51°27.891 2°59.088 87.8 14 82 21.9
2006-04-25 11:43:11 51°27.926 2°59.456 92 13.9 84 20.8
2006-04-25 11:44:11 51°27.957 2°59.827 90.3 14.3 81 20.8
2006-04-25 11:45:11 51°27.986 3°0.203 90.9 14 82 22.5
2006-04-25 11:46:11 51°28.019 3°0.571 91.3 13.9 82 22.2
2006-04-25 11:47:11 51°28.053 3°0.942 91.1 14.2 81 22.6
2006-04-25 11:48:11 51°28.056 3°1.313 99.6 13.9 89 24.9
2006-04-25 11:49:11 51°28.05 3°1.688 99.4 14.3 90 25.7
2006-04-25 11:50:11 51°28.07 3°2.067 93.2 14.6 82 25.6
2006-04-25 11:51:11 51°28.101 3°2.448 94.8 14.2 87 25.5
2006-04-25 11:52:11 51°28.132 3°2.828 91.2 14.2 80 25.2
2006-04-25 11:53:11 51°28.179 3°3.14 75 10.3 63 24.5
2006-04-25 11:54:11 51°28.241 3°3.326 68.6 6.7 59 24.5
2006-04-25 11:55:11 51°28.287 3°3.429 50.3 2.7 51 24.6
2006-04-25 11:56:11 51°28.311 3°3.477 38.1 2.5 51 24.5
2006-04-25 11:57:11 51°28.34 3°3.528 17.1 2.6 43 24.4
2006-04-25 11:58:11 51°28.372 3°3.569 353.8 2.3 40 24.4
2006-04-25 11:59:11 51°28.4 3°3.606 339.4 2 39 24.6
2006-04-25 12:00:11 51°28.426 3°3.642 337.9 2.1 45 24.8
2006-04-25 12:01:11 51°28.452 3°3.683 338.7 2.1 46 24.5
2006-04-25 12:02:11 51°28.477 3°3.723 342.5 2.1 44 24.7
2006-04-25 12:03:11 51°28.502 3°3.765 348.7 2.1 47 24.5
2006-04-25 12:04:11 51°28.526 3°3.808 351.9 2.2 46 24.4
2006-04-25 12:05:11 51°28.552 3°3.851 351.8 2.2 46 24.5
2006-04-25 12:06:11 51°28.616 3°3.923 55.2 6 54 24.6
2006-04-25 12:07:11 51°28.612 3°4.068 135.4 6.3 114 24.4
2006-04-25 12:08:11 51°28.506 3°4.304 136.4 12.4 127 23
2006-04-25 12:09:11 51°28.377 3°4.569 139.3 12.6 127 21.3
2006-04-25 12:10:11 51°28.24 3°4.824 139.4 12.7 129 18.7
2006-04-25 12:11:11 51°28.093 3°5.057 145 12.5 136 16.4
2006-04-25 12:12:11 51°27.946 3°5.29 143 12.4 134 16.4
2006-04-25 12:13:11 51°27.798 3°5.52 145.8 12.3 135 17
2006-04-25 12:14:11 51°27.652 3°5.751 143.9 12.3 137 16.4
2006-04-25 12:15:11 51°27.508 3°5.985 144.3 12.2 133 15.8
2006-04-25 12:16:11 51°27.36 3°6.214 142.9 12.3 133 15.6
2006-04-25 12:17:11 51°27.222 3°6.464 139 12.5 129 15
2006-04-25 12:18:11 51°27.094 3°6.726 134.1 12.6 126 14.4
2006-04-25 12:19:11 51°26.967 3°6.993 134.2 12.5 127 13.8
2006-04-25 12:20:11 51°26.845 3°7.263 131.6 12.6 122 13.3
2006-04-25 12:21:11 51°26.728 3°7.543 131.1 12.6 123 12.6
2006-04-25 12:22:11 51°26.613 3°7.827 129.8 12.8 119 12
2006-04-25 12:23:11 51°26.523 3°8.066 134.2 7.6 124 11.9
2006-04-25 12:24:11 51°26.48 3°8.188 134.1 4 112 12.4
2006-04-25 12:25:11 51°26.478 3°8.282 98.3 3.3 76 12.5
2006-04-25 12:26:11 51°26.494 3°8.31 72.3 1.2 35 -999
2006-04-25 12:27:11 51°26.515 3°8.343 67.3 2 48 12.7
2006-04-25 12:28:11 51°26.542 3°8.386 59 2.5 42 12.7
2006-04-25 12:29:11 51°26.573 3°8.432 39.4 2.5 37 12.7
2006-04-25 12:30:11 51°26.604 3°8.469 20.1 2.2 38 12.6
2006-04-25 12:31:11 51°26.632 3°8.499 5.1 2 41 12.7
2006-04-25 12:32:11 51°26.679 3°8.539 28.4 4.9 33 13.4
2006-04-25 12:33:11 51°26.698 3°8.667 123.4 5.2 108 13.1
2006-04-25 12:34:11 51°26.644 3°8.85 125.8 10.4 119 12.7
2006-04-25 12:35:11 51°26.538 3°9.131 131 12.4 125 12.1
2006-04-25 12:36:11 51°26.424 3°9.413 128.1 12.7 123 11.2
2006-04-25 12:37:11 51°26.3 3°9.683 132.6 12.6 124 10.6
2006-04-25 12:38:11 51°26.178 3°9.954 128.9 12.7 120 10.2
2006-04-25 12:39:11 51°26.054 3°10.224 130.2 12.7 127 9.7
2006-04-25 12:40:11 51°25.93 3°10.493 134 12.6 126 9.4
2006-04-25 12:41:11 51°25.806 3°10.76 132.4 12.7 129 9.1
2006-04-25 12:42:11 51°25.683 3°11.026 130.2 12.4 126 9.2
2006-04-25 12:43:11 51°25.571 3°11.31 125.5 12.8 119 10.1
2006-04-25 12:44:11 51°25.472 3°11.612 119.1 12.9 111 11
2006-04-25 12:45:11 51°25.422 3°11.949 107.2 13 101 11.4
2006-04-25 12:46:11 51°25.391 3°12.297 100.1 13.3 93 11.4
2006-04-25 12:47:11 51°25.392 3°12.656 89.7 13.6 83 11.5
2006-04-25 12:48:11 51°25.425 3°13.018 86 13.6 82 11.3
2006-04-25 12:49:11 51°25.453 3°13.371 84.3 13.4 79 11.2
2006-04-25 12:50:11 51°25.477 3°13.726 89.9 13.4 85 11.1
2006-04-25 12:51:11 51°25.498 3°14.074 87.3 13.2 81 10.9
2006-04-25 12:52:11 51°25.528 3°14.424 89.8 13.4 83 10.5
2006-04-25 12:53:11 51°25.565 3°14.773 86.3 13.3 80 10.1
2006-04-25 12:54:11 51°25.605 3°15.12 85.5 13.4 78 9.8
2006-04-25 12:55:11 51°25.648 3°15.465 82 13.2 75 9.8
2006-04-25 12:56:11 51°25.668 3°15.816 90 13.3 82 9.8
2006-04-25 12:57:11 51°25.691 3°16.168 91.3 13.4 83 9.8
2006-04-25 12:58:11 51°25.734 3°16.52 86.4 13.6 81 9.7
2006-04-25 12:59:11 51°25.767 3°16.874 86.3 13.5 79 9.8
2006-04-25 13:00:11 51°25.802 3°17.227 89.3 13.6 83 9.8
2006-04-25 13:01:11 51°25.831 3°17.552 88.5 9.9 79 10.1
2006-04-25 13:02:11 51°25.915 3°17.666 8.9 6 2 10
2006-04-25 13:03:11 51°25.977 3°17.61 300 1.8 330 10.1
2006-04-25 13:04:12 51°25.99 3°17.635 311.5 1.1 48 -999
2006-04-25 13:05:11 51°25.999 3°17.655 333.1 0.9 53 10.1
2006-04-25 13:06:11 51°26.008 3°17.67 347.2 0.8 42 10.1
2006-04-25 13:07:10 51°26.018 3°17.681 1.4 0.8 28 10
2006-04-25 13:08:11 51°26.034 3°17.693 11.7 1.5 15 10.1
2006-04-25 13:09:11 51°26.09 3°17.629 296.5 6 297 9.8
2006-04-25 13:10:11 51°26.036 3°17.501 203.9 6.9 200 9.8
2006-04-25 13:11:11 51°25.906 3°17.42 209.5 8.9 208 9.8
2006-04-25 13:12:11 51°25.77 3°17.243 223.9 11.8 223 10
2006-04-25 13:13:11 51°25.612 3°17.041 214.9 12.2 214 10.5
2006-04-25 13:14:11 51°25.447 3°16.85 220.2 12.3 218 11.1
2006-04-25 13:15:11 51°25.282 3°16.652 218.7 12.4 216 12.2
2006-04-25 13:16:11 51°25.114 3°16.466 219.1 12.2 215 14.6
2006-04-25 13:17:11 51°24.95 3°16.273 220.4 12.3 216 15.7
2006-04-25 13:18:11 51°24.783 3°16.083 221.1 12.4 218 18.4
2006-04-25 13:19:11 51°24.619 3°15.882 222 12.6 219 19.7
2006-04-25 13:20:11 51°24.455 3°15.676 221.3 12.5 218 19.5
2006-04-25 13:21:11 51°24.289 3°15.475 221.3 12.4 217 15.1
2006-04-25 13:22:11 51°24.125 3°15.277 222.3 12.3 218 12.8
2006-04-25 13:23:11 51°23.962 3°15.075 222.7 12.4 218 13.3
2006-04-25 13:24:11 51°23.799 3°14.871 222.4 12.5 218 12.8
2006-04-25 13:25:11 51°23.635 3°14.667 224 12.5 220 12.1
2006-04-25 13:26:11 51°23.474 3°14.455 224.4 12.5 219 12.6
2006-04-25 13:27:11 51°23.312 3°14.251 224.7 12.4 219 11.4
2006-04-25 13:28:11 51°23.152 3°14.042 223.3 12.4 218 11.4
2006-04-25 13:29:11 51°22.993 3°13.828 225 12.6 220 11.6
2006-04-25 13:30:11 51°22.838 3°13.604 227.8 12.6 223 12
2006-04-25 13:31:11 51°22.698 3°13.404 228.3 8.9 222 12.7
2006-04-25 13:32:11 51°22.625 3°13.277 242 4.7 236 13.1
2006-04-25 13:33:11 51°22.614 3°13.238 287.3 0.2 68 13.3
2006-04-25 13:34:12 51°22.616 3°13.247 320 0.4 69 -999
2006-04-25 13:35:11 51°22.619 3°13.257 335.1 0.4 71 13.2
2006-04-25 13:36:11 51°22.622 3°13.268 341.8 0.4 65 13.2
2006-04-25 13:37:11 51°22.625 3°13.278 346.3 0.5 60 13.1
2006-04-25 13:38:11 51°22.628 3°13.29 350.8 0.5 69 13.1
2006-04-25 13:39:11 51°22.632 3°13.302 353.1 0.5 69 13.1
2006-04-25 13:40:11 51°22.635 3°13.314 353.5 0.4 67 13
2006-04-25 13:41:11 51°22.637 3°13.326 352.7 0.5 74 12.9
2006-04-25 13:42:11 51°22.639 3°13.338 350.8 0.4 80 12.9
2006-04-25 13:43:11 51°22.641 3°13.35 348.8 0.4 81 12.8
2006-04-25 13:44:11 51°22.647 3°13.358 345.9 1.2 359 12.8
2006-04-25 13:45:11 51°22.686 3°13.295 300.8 5.1 295 12.7
2006-04-25 13:46:11 51°22.67 3°13.086 262.5 10.2 261 13
2006-04-25 13:47:11 51°22.674 3°12.769 270 12.2 263 13.5
2006-04-25 13:48:11 51°22.69 3°12.441 279.7 12.2 270 14.1
2006-04-25 13:49:11 51°22.632 3°12.123 256.8 12.7 252 14.5
2006-04-25 13:50:11 51°22.569 3°11.798 253.3 12.9 250 15.2
2006-04-25 13:51:11 51°22.517 3°11.469 269.1 12.8 268 15.7
2006-04-25 13:52:11 51°22.503 3°11.124 266.5 13.1 266 16
2006-04-25 13:53:11 51°22.49 3°10.775 265.3 13.3 265 15.9
2006-04-25 13:54:11 51°22.475 3°10.423 264 13.2 263 18
2006-04-25 13:55:11 51°22.45 3°10.074 264 13.2 261 14.6
2006-04-25 13:56:11 51°22.43 3°9.726 268.9 13 266 14
2006-04-25 13:57:11 51°22.385 3°9.395 246.7 12.7 244 13.6
2006-04-25 13:58:11 51°22.309 3°9.075 255.2 12.9 255 13.3
2006-04-25 13:59:11 51°22.239 3°8.751 251.5 12.9 249 12.9
2006-04-25 14:00:11 51°22.161 3°8.43 247.1 12.9 246 12.7
2006-04-25 14:01:11 51°22.092 3°8.1 255.7 13.1 254 12.4
2006-04-25 14:02:11 51°22.033 3°7.765 255.6 13.2 253 12.3
2006-04-25 14:03:11 51°21.995 3°7.422 268.7 13.1 267 12.3
2006-04-25 14:04:11 51°21.977 3°7.077 266.2 12.9 262 12.1
2006-04-25 14:05:11 51°21.944 3°6.74 263.4 12.9 262 12.1
2006-04-25 14:06:11 51°21.905 3°6.405 254.4 12.8 254 11.9
2006-04-25 14:07:11 51°21.828 3°6.087 251.4 12.9 250 11.8
2006-04-25 14:08:11 51°21.763 3°5.76 252.8 12.8 250 11.6
2006-04-25 14:09:11 51°21.686 3°5.442 250.3 12.9 249 11.5
2006-04-25 14:10:11 51°21.613 3°5.118 253.9 12.9 253 11.5
2006-04-25 14:11:11 51°21.541 3°4.796 250.7 12.9 250 11.4
2006-04-25 14:12:11 51°21.472 3°4.471 251.1 12.9 251 11.2
2006-04-25 14:13:11 51°21.404 3°4.144 253.4 13 253 11.1
2006-04-25 14:14:11 51°21.33 3°3.823 248.2 12.9 248 11
2006-04-25 14:15:11 51°21.254 3°3.503 246.6 13 245 11
2006-04-25 14:16:11 51°21.165 3°3.188 249.5 12.9 248 10.8
2006-04-25 14:17:11 51°21.087 3°2.867 247.3 13 247 10.7
2006-04-25 14:18:11 51°20.998 3°2.55 247.5 13.1 247 10.6
2006-04-25 14:19:11 51°20.919 3°2.224 250.4 13.2 250 10.4
2006-04-25 14:20:11 51°20.838 3°1.902 247.2 13.1 247 10.3
2006-04-25 14:21:11 51°20.764 3°1.577 252.8 13.1 252 10.3
2006-04-25 14:22:11 51°20.689 3°1.251 248.1 13.1 247 10.4
2006-04-25 14:23:11 51°20.622 3°0.92 250.9 13.1 249 10.3
2006-04-25 14:24:11 51°20.546 3°0.594 252.2 13.1 251 10.4
2006-04-25 14:25:11 51°20.473 3°0.277 250.5 13.1 250 10.3
2006-04-25 14:26:11 51°20.398 2°59.947 246.7 13 245 10.3
2006-04-25 14:27:11 51°20.323 2°59.619 254.7 13.1 253 10.3
2006-04-25 14:28:11 51°20.25 2°59.29 250.5 13.1 250 10.3
2006-04-25 14:29:11 51°20.186 2°58.958 254.2 13.1 253 10.3
2006-04-25 14:30:11 51°20.128 2°58.623 255.4 13.2 254 10.4
2006-04-25 14:31:11 51°20.07 2°58.284 256.9 13.2 256 10.5
2006-04-25 14:32:11 51°20.001 2°57.948 252.4 13.2 251 10.5
2006-04-25 14:33:11 51°19.944 2°57.61 257.5 13.2 257 10.7
2006-04-25 14:34:11 51°19.879 2°57.277 255 13.1 254 10.9
2006-04-25 14:35:11 51°19.813 2°56.943 255.2 13.2 254 10.9
2006-04-25 14:36:11 51°19.753 2°56.606 252.7 13.2 251 11
2006-04-25 14:37:11 51°19.681 2°56.273 253.9 13.2 253 11.2
2006-04-25 14:38:11 51°19.603 2°55.946 252.1 13.2 252 11.3
2006-04-25 14:39:11 51°19.537 2°55.609 253.2 13.3 253 11.6
2006-04-25 14:40:11 51°19.471 2°55.273 253.4 13.2 253 11.7
2006-04-25 14:41:11 51°19.409 2°54.936 255.8 13.2 254 11.7
2006-04-25 14:42:11 51°19.344 2°54.601 250.9 13.2 251 11.6
2006-04-25 14:43:11 51°19.272 2°54.27 252.5 13.2 252 11.7
2006-04-25 14:44:11 51°19.211 2°53.932 260.1 13.3 259 11.7
2006-04-25 14:45:11 51°19.148 2°53.594 254.6 13.2 254 11.8
2006-04-25 14:46:11 51°19.07 2°53.267 247.4 13.2 246 11.8
2006-04-25 14:47:11 51°19 2°52.934 254 13.2 252 11.8
2006-04-25 14:48:11 51°18.922 2°52.604 254.4 13.2 254 12
2006-04-25 14:49:11 51°18.854 2°52.269 253.8 13.3 253 12.5
2006-04-25 14:50:11 51°18.792 2°51.934 251 13.2 249 13
2006-04-25 14:51:11 51°18.691 2°51.624 240.5 13.2 240 13.3
2006-04-25 14:52:11 51°18.582 2°51.32 238.6 13.2 238 13.4
2006-04-25 14:53:11 51°18.488 2°51.06 245.2 8.8 244 13.4
2006-04-25 14:54:11 51°18.469 2°50.967 244.8 0.2 332 13.6
2006-04-25 14:55:11 51°18.474 2°50.966 228.2 0.3 2 4.9
2006-04-25 14:56:11 51°18.481 2°50.97 210.9 0.6 16 13.5
2006-04-25 14:57:11 51°18.49 2°50.973 192.3 0.5 3 13.6
2006-04-25 14:58:11 51°18.499 2°50.971 173.5 0.5 346 13.6
2006-04-25 14:59:11 51°18.506 2°50.966 159 0.4 332 13.6
2006-04-25 15:00:11 51°18.511 2°50.962 147.1 0.3 326 13.5
2006-04-25 15:01:11 51°18.514 2°50.96 143 0.2 332 13.5
2006-04-25 15:02:11 51°18.516 2°50.959 146 0.1 337 13.5
2006-04-25 15:03:11 51°18.516 2°50.958 154 -999 250 13.5
2006-04-25 15:04:11 51°18.516 2°50.957 159 0.1 196 13.5
2006-04-25 15:05:11 51°18.514 2°50.955 162.7 0.2 206 13.5
2006-04-25 15:06:11 51°18.512 2°50.954 166.4 0.2 199 13.5
2006-04-25 15:07:11 51°18.501 2°50.957 167.6 2.3 167 13.4
2006-04-25 15:08:11 51°18.397 2°51.045 148 9.8 148 13
2006-04-25 15:09:11 51°18.228 2°51.208 146.4 12.6 144 12
2006-04-25 15:10:11 51°18.058 2°51.399 145 12.6 146 10.8
2006-04-25 15:11:11 51°17.885 2°51.584 146.6 12.5 147 9.7
2006-04-25 15:12:11 51°17.71 2°51.766 146.3 12.7 148 9.4
2006-04-25 15:13:11 51°17.525 2°51.93 153.1 12.8 153 9.7
2006-04-25 15:14:11 51°17.334 2°52.08 153.1 12.8 151 10
2006-04-25 15:15:11 51°17.144 2°52.232 154.8 12.9 154 9.7
2006-04-25 15:16:11 51°16.962 2°52.402 148.7 12.5 145 9
2006-04-25 15:17:11 51°16.82 2°52.634 120.7 11.9 113 8.9
2006-04-25 15:18:11 51°16.743 2°52.932 123.9 12.6 124 9.8
2006-04-25 15:19:11 51°16.63 2°53.211 115.6 12.3 114 10.7
2006-04-25 15:20:11 51°16.547 2°53.511 110.4 12.4 107 10.8
2006-04-25 15:21:11 51°16.451 2°53.802 123.9 12.5 123 10.7
2006-04-25 15:22:11 51°16.368 2°54.06 115.9 8.4 114 10.7
2006-04-25 15:23:11 51°16.302 2°54.19 137.7 5.4 141 10.5
2006-04-25 15:24:11 51°16.248 2°54.261 134.8 2.6 146 10.5
2006-04-25 15:25:11 51°16.242 2°54.253 149.2 0.4 257 10.5
2006-04-25 15:26:11 51°16.239 2°54.243 140.3 0.4 239 10.5
2006-04-25 15:27:11 51°16.235 2°54.236 144.2 0.5 230 10.5
2006-04-25 15:28:11 51°16.229 2°54.228 148 0.4 223 10.4
2006-04-25 15:29:11 51°16.223 2°54.22 152.6 0.5 212 10.4
2006-04-25 15:30:11 51°16.205 2°54.218 163 2.6 172 10.5
2006-04-25 15:31:11 51°16.089 2°54.233 171.4 9.9 174 10.2
2006-04-25 15:32:11 51°15.901 2°54.248 173.2 11.9 176 9.8
2006-04-25 15:33:11 51°15.704 2°54.288 171.2 11.8 172 9.3
2006-04-25 15:34:11 51°15.507 2°54.335 168.8 12 171 8.7
2006-04-25 15:35:11 51°15.312 2°54.382 169.1 11.8 169 8
2006-04-25 15:36:11 51°15.118 2°54.437 169.2 11.8 170 7.5
2006-04-25 15:37:11 51°14.93 2°54.495 167.1 11.4 167 8.2
2006-04-25 15:38:11 51°14.749 2°54.57 158.7 11 160 8.3
2006-04-25 15:39:11 51°14.589 2°54.707 145.3 10.8 148 8.5
2006-04-25 15:40:11 51°14.45 2°54.882 135.7 10.4 136 9.3
2006-04-25 15:41:11 51°14.346 2°55.089 131.3 9.8 128 9.2
2006-04-25 15:42:12 51°14.253 2°55.285 132 8.2 130 9.1
2006-04-25 15:43:11 51°14.158 2°55.392 157.7 6.6 155 9.1
2006-04-25 15:44:11 51°14.062 2°55.458 159.5 6 156 9.1
2006-04-25 15:45:11 51°13.98 2°55.517 159.9 5.1 156 9.1
2006-04-25 15:46:11 51°13.905 2°55.572 159.4 4.8 155 9
2006-04-25 15:47:11 51°13.834 2°55.625 158.9 4.7 154 9.1
2006-04-25 15:48:15 51°13.765 2°55.695 144.5 4.6 140 9.2
2006-04-25 15:49:15 51°13.712 2°55.779 134.5 4.2 132 -999
2006-04-25 15:50:15 51°13.673 2°55.861 129.1 3.7 125 -999
2006-04-25 15:51:15 51°13.64 2°55.938 126.3 3.4 122 -999
2006-04-25 15:52:15 51°13.617 2°56.017 114.3 3.1 109 -999
2006-04-25 15:53:15 51°13.607 2°56.08 106.7 1.4 111 -999